sensor_id;sensor_type;location;lat;lon;timestamp;temperature;humidity
50570;DHT22;36525;49.398;7.614;2023-05-10T00:02:23;12.10;99.90
50570;DHT22;36525;49.398;7.614;2023-05-10T00:04:51;12.10;99.90
50570;DHT22;36525;49.398;7.614;2023-05-10T00:07:19;12.00;99.90
50570;DHT22;36525;49.398;7.614;2023-05-10T00:09:46;12.00;99.90
50570;DHT22;36525;49.398;7.614;2023-05-10T00:12:13;12.10;99.90
50570;DHT22;36525;49.398;7.614;2023-05-10T00:14:41;12.10;99.90
50570;DHT22;36525;49.398;7.614;2023-05-10T00:17:08;12.00;99.90
50570;DHT22;36525;49.398;7.614;2023-05-10T00:19:35;12.10;99.90
50570;DHT22;36525;49.398;7.614;2023-05-10T00:22:02;12.00;99.90
50570;DHT22;36525;49.398;7.614;2023-05-10T00:24:29;12.10;99.90
50570;DHT22;36525;49.398;7.614;2023-05-10T00:26:56;12.10;99.90
50570;DHT22;36525;49.398;7.614;2023-05-10T00:29:23;12.10;99.90
50570;DHT22;36525;49.398;7.614;2023-05-10T00:31:50;12.20;99.90
50570;DHT22;36525;49.398;7.614;2023-05-10T00:34:18;12.10;99.90
50570;DHT22;36525;49.398;7.614;2023-05-10T00:36:44;12.10;99.90
50570;DHT22;36525;49.398;7.614;2023-05-10T00:39:12;12.10;99.90
50570;DHT22;36525;49.398;7.614;2023-05-10T00:41:39;12.00;99.90
50570;DHT22;36525;49.398;7.614;2023-05-10T00:44:08;12.00;99.90
50570;DHT22;36525;49.398;7.614;2023-05-10T00:46:35;12.00;99.90
50570;DHT22;36525;49.398;7.614;2023-05-10T00:49:03;12.00;99.90
50570;DHT22;36525;49.398;7.614;2023-05-10T00:51:31;12.00;99.90
50570;DHT22;36525;49.398;7.614;2023-05-10T00:53:58;12.00;99.90
50570;DHT22;36525;49.398;7.614;2023-05-10T00:56:26;12.00;99.90
50570;DHT22;36525;49.398;7.614;2023-05-10T00:58:55;12.10;99.90
50570;DHT22;36525;49.398;7.614;2023-05-10T01:01:23;12.10;99.90
50570;DHT22;36525;49.398;7.614;2023-05-10T01:03:50;12.10;99.90
50570;DHT22;36525;49.398;7.614;2023-05-10T01:06:17;12.10;99.90
50570;DHT22;36525;49.398;7.614;2023-05-10T01:08:44;12.20;99.90
50570;DHT22;36525;49.398;7.614;2023-05-10T01:11:11;12.20;99.90
50570;DHT22;36525;49.398;7.614;2023-05-10T01:13:40;12.10;99.90
50570;DHT22;36525;49.398;7.614;2023-05-10T01:16:09;12.10;99.90
50570;DHT22;36525;49.398;7.614;2023-05-10T01:18:38;12.10;99.90
50570;DHT22;36525;49.398;7.614;2023-05-10T01:39:49;12.00;99.90
50570;DHT22;36525;49.398;7.614;2023-05-10T01:42:11;12.00;99.90
50570;DHT22;36525;49.398;7.614;2023-05-10T01:44:53;12.00;99.90
50570;DHT22;36525;49.398;7.614;2023-05-10T01:47:30;12.00;99.90
50570;DHT22;36525;49.398;7.614;2023-05-10T01:50:02;12.00;99.90
50570;DHT22;36525;49.398;7.614;2023-05-10T01:52:37;12.00;99.90
50570;DHT22;36525;49.398;7.614;2023-05-10T01:55:11;12.00;99.90
50570;DHT22;36525;49.398;7.614;2023-05-10T01:57:43;12.00;99.90
50570;DHT22;36525;49.398;7.614;2023-05-10T02:00:12;12.00;99.90
50570;DHT22;36525;49.398;7.614;2023-05-10T02:02:45;11.90;99.90
50570;DHT22;36525;49.398;7.614;2023-05-10T02:05:13;11.90;99.90
50570;DHT22;36525;49.398;7.614;2023-05-10T02:07:42;11.90;99.90
50570;DHT22;36525;49.398;7.614;2023-05-10T02:10:10;11.90;99.90
50570;DHT22;36525;49.398;7.614;2023-05-10T02:12:43;11.90;99.90
50570;DHT22;36525;49.398;7.614;2023-05-10T02:15:14;11.90;99.90
50570;DHT22;36525;49.398;7.614;2023-05-10T02:17:45;11.90;99.90
50570;DHT22;36525;49.398;7.614;2023-05-10T02:20:14;12.00;99.90
50570;DHT22;36525;49.398;7.614;2023-05-10T02:22:43;11.90;99.90
50570;DHT22;36525;49.398;7.614;2023-05-10T02:25:13;12.00;99.90
50570;DHT22;36525;49.398;7.614;2023-05-10T02:27:41;12.00;99.90
50570;DHT22;36525;49.398;7.614;2023-05-10T02:30:13;12.00;99.90
50570;DHT22;36525;49.398;7.614;2023-05-10T02:32:41;12.10;99.90
50570;DHT22;36525;49.398;7.614;2023-05-10T02:35:10;12.10;99.90
50570;DHT22;36525;49.398;7.614;2023-05-10T02:37:38;12.10;99.90
50570;DHT22;36525;49.398;7.614;2023-05-10T02:40:07;12.10;99.90
50570;DHT22;36525;49.398;7.614;2023-05-10T02:42:37;12.10;99.90
50570;DHT22;36525;49.398;7.614;2023-05-10T02:45:15;12.10;99.90
50570;DHT22;36525;49.398;7.614;2023-05-10T02:47:45;12.10;99.90
50570;DHT22;36525;49.398;7.614;2023-05-10T02:50:12;12.10;99.90
50570;DHT22;36525;49.398;7.614;2023-05-10T02:52:44;12.10;99.90
50570;DHT22;36525;49.398;7.614;2023-05-10T02:55:15;12.10;99.90
50570;DHT22;36525;49.398;7.614;2023-05-10T02:57:51;12.20;99.90
50570;DHT22;36525;49.398;7.614;2023-05-10T03:00:19;12.20;99.90
50570;DHT22;36525;49.398;7.614;2023-05-10T03:02:48;12.20;99.90
50570;DHT22;36525;49.398;7.614;2023-05-10T03:05:15;12.20;99.90
50570;DHT22;36525;49.398;7.614;2023-05-10T03:07:42;12.20;99.90
50570;DHT22;36525;49.398;7.614;2023-05-10T03:10:10;12.20;99.90
50570;DHT22;36525;49.398;7.614;2023-05-10T03:15:48;12.20;99.90
50570;DHT22;36525;49.398;7.614;2023-05-10T03:18:50;12.20;99.90
50570;DHT22;36525;49.398;7.614;2023-05-10T03:21:22;12.20;99.90
50570;DHT22;36525;49.398;7.614;2023-05-10T03:24:07;12.20;99.90
50570;DHT22;36525;49.398;7.614;2023-05-10T03:26:36;12.20;99.90
50570;DHT22;36525;49.398;7.614;2023-05-10T03:29:05;12.20;99.90
50570;DHT22;36525;49.398;7.614;2023-05-10T03:31:33;12.20;99.90
50570;DHT22;36525;49.398;7.614;2023-05-10T03:34:01;12.20;99.90
50570;DHT22;36525;49.398;7.614;2023-05-10T03:36:28;12.20;99.90
50570;DHT22;36525;49.398;7.614;2023-05-10T03:38:55;12.20;99.90
50570;DHT22;36525;49.398;7.614;2023-05-10T03:41:22;12.20;99.90
50570;DHT22;36525;49.398;7.614;2023-05-10T03:43:49;12.30;99.90
50570;DHT22;36525;49.398;7.614;2023-05-10T03:46:17;12.30;99.90
50570;DHT22;36525;49.398;7.614;2023-05-10T03:48:44;12.20;99.90
50570;DHT22;36525;49.398;7.614;2023-05-10T03:51:11;12.30;99.90
50570;DHT22;36525;49.398;7.614;2023-05-10T03:53:39;12.30;99.90
50570;DHT22;36525;49.398;7.614;2023-05-10T03:56:06;12.30;99.90
50570;DHT22;36525;49.398;7.614;2023-05-10T03:58:33;12.30;99.90
50570;DHT22;36525;49.398;7.614;2023-05-10T04:01:00;12.30;99.90
50570;DHT22;36525;49.398;7.614;2023-05-10T04:03:27;12.20;99.90
50570;DHT22;36525;49.398;7.614;2023-05-10T04:06:02;12.10;99.90
50570;DHT22;36525;49.398;7.614;2023-05-10T04:08:30;12.10;99.90
50570;DHT22;36525;49.398;7.614;2023-05-10T04:11:08;12.00;99.90
50570;DHT22;36525;49.398;7.614;2023-05-10T04:13:36;12.10;99.90
50570;DHT22;36525;49.398;7.614;2023-05-10T04:16:05;12.00;99.90
50570;DHT22;36525;49.398;7.614;2023-05-10T04:18:32;12.00;99.90
50570;DHT22;36525;49.398;7.614;2023-05-10T04:20:59;12.00;99.90
50570;DHT22;36525;49.398;7.614;2023-05-10T04:23:29;12.00;99.90
50570;DHT22;36525;49.398;7.614;2023-05-10T04:26:01;12.00;99.90
50570;DHT22;36525;49.398;7.614;2023-05-10T04:28:28;12.00;99.90
50570;DHT22;36525;49.398;7.614;2023-05-10T04:31:21;12.00;99.90
50570;DHT22;36525;49.398;7.614;2023-05-10T04:33:49;12.00;99.90
50570;DHT22;36525;49.398;7.614;2023-05-10T04:36:16;12.00;99.90
50570;DHT22;36525;49.398;7.614;2023-05-10T04:38:43;12.00;99.90
50570;DHT22;36525;49.398;7.614;2023-05-10T04:41:13;12.00;99.90
50570;DHT22;36525;49.398;7.614;2023-05-10T04:43:40;12.00;99.90
50570;DHT22;36525;49.398;7.614;2023-05-10T04:46:07;12.00;99.90
50570;DHT22;36525;49.398;7.614;2023-05-10T04:48:38;11.90;99.90
50570;DHT22;36525;49.398;7.614;2023-05-10T04:51:05;12.00;99.90
50570;DHT22;36525;49.398;7.614;2023-05-10T04:53:36;12.00;99.90
50570;DHT22;36525;49.398;7.614;2023-05-10T04:56:03;12.00;99.90
50570;DHT22;36525;49.398;7.614;2023-05-10T04:58:31;12.00;99.90
50570;DHT22;36525;49.398;7.614;2023-05-10T05:01:05;12.00;99.90
50570;DHT22;36525;49.398;7.614;2023-05-10T05:03:33;12.00;99.90
50570;DHT22;36525;49.398;7.614;2023-05-10T05:06:01;12.00;99.90
50570;DHT22;36525;49.398;7.614;2023-05-10T05:08:28;12.00;99.90
50570;DHT22;36525;49.398;7.614;2023-05-10T05:10:56;12.00;99.90
50570;DHT22;36525;49.398;7.614;2023-05-10T05:13:23;11.90;99.90
50570;DHT22;36525;49.398;7.614;2023-05-10T05:15:50;12.00;99.90
50570;DHT22;36525;49.398;7.614;2023-05-10T05:18:19;12.00;99.90
50570;DHT22;36525;49.398;7.614;2023-05-10T05:20:46;12.10;99.90
50570;DHT22;36525;49.398;7.614;2023-05-10T05:23:14;12.10;99.90
50570;DHT22;36525;49.398;7.614;2023-05-10T05:25:41;12.10;99.90
50570;DHT22;36525;49.398;7.614;2023-05-10T05:28:08;12.20;99.90
50570;DHT22;36525;49.398;7.614;2023-05-10T05:30:35;12.10;99.90
50570;DHT22;36525;49.398;7.614;2023-05-10T05:33:03;12.10;99.90
50570;DHT22;36525;49.398;7.614;2023-05-10T05:35:30;12.10;99.90
50570;DHT22;36525;49.398;7.614;2023-05-10T05:37:57;12.20;99.90
50570;DHT22;36525;49.398;7.614;2023-05-10T05:40:27;12.20;99.90
50570;DHT22;36525;49.398;7.614;2023-05-10T05:42:54;12.20;99.90
50570;DHT22;36525;49.398;7.614;2023-05-10T05:45:28;12.30;99.90
50570;DHT22;36525;49.398;7.614;2023-05-10T05:47:55;12.40;99.90
50570;DHT22;36525;49.398;7.614;2023-05-10T05:50:25;12.40;99.90
50570;DHT22;36525;49.398;7.614;2023-05-10T05:52:52;12.50;99.90
50570;DHT22;36525;49.398;7.614;2023-05-10T05:55:19;12.60;99.90
50570;DHT22;36525;49.398;7.614;2023-05-10T05:57:47;12.60;99.90
50570;DHT22;36525;49.398;7.614;2023-05-10T06:00:14;12.80;99.90
50570;DHT22;36525;49.398;7.614;2023-05-10T06:02:41;12.80;99.90
50570;DHT22;36525;49.398;7.614;2023-05-10T06:05:09;12.80;99.90
50570;DHT22;36525;49.398;7.614;2023-05-10T06:07:36;12.90;99.90
50570;DHT22;36525;49.398;7.614;2023-05-10T06:12:35;13.30;99.90
50570;DHT22;36525;49.398;7.614;2023-05-10T06:15:03;13.20;99.90
50570;DHT22;36525;49.398;7.614;2023-05-10T06:17:31;13.20;99.90
50570;DHT22;36525;49.398;7.614;2023-05-10T06:19:59;13.40;99.90
50570;DHT22;36525;49.398;7.614;2023-05-10T06:22:26;13.30;99.90
50570;DHT22;36525;49.398;7.614;2023-05-10T06:24:53;13.20;99.90
50570;DHT22;36525;49.398;7.614;2023-05-10T06:27:20;13.40;99.90
50570;DHT22;36525;49.398;7.614;2023-05-10T06:29:47;13.40;99.90
50570;DHT22;36525;49.398;7.614;2023-05-10T06:32:19;13.30;99.90
50570;DHT22;36525;49.398;7.614;2023-05-10T06:34:46;13.10;99.90
50570;DHT22;36525;49.398;7.614;2023-05-10T06:37:13;13.00;99.90
50570;DHT22;36525;49.398;7.614;2023-05-10T06:39:40;12.90;99.90
50570;DHT22;36525;49.398;7.614;2023-05-10T06:42:08;12.80;99.90
50570;DHT22;36525;49.398;7.614;2023-05-10T06:44:35;12.70;99.90
50570;DHT22;36525;49.398;7.614;2023-05-10T06:47:02;12.60;99.90
50570;DHT22;36525;49.398;7.614;2023-05-10T06:49:33;12.60;99.90
50570;DHT22;36525;49.398;7.614;2023-05-10T06:52:02;12.70;99.90
50570;DHT22;36525;49.398;7.614;2023-05-10T06:54:29;12.60;99.90
50570;DHT22;36525;49.398;7.614;2023-05-10T06:56:56;12.70;99.90
50570;DHT22;36525;49.398;7.614;2023-05-10T06:59:23;12.80;99.90
50570;DHT22;36525;49.398;7.614;2023-05-10T07:01:56;12.90;99.90
50570;DHT22;36525;49.398;7.614;2023-05-10T07:04:24;13.00;99.90
50570;DHT22;36525;49.398;7.614;2023-05-10T07:06:51;13.10;99.90
50570;DHT22;36525;49.398;7.614;2023-05-10T07:09:18;13.00;99.90
50570;DHT22;36525;49.398;7.614;2023-05-10T07:11:46;13.00;99.90
50570;DHT22;36525;49.398;7.614;2023-05-10T07:14:13;12.90;99.90
50570;DHT22;36525;49.398;7.614;2023-05-10T07:16:42;13.10;99.90
50570;DHT22;36525;49.398;7.614;2023-05-10T07:19:09;13.20;99.90
50570;DHT22;36525;49.398;7.614;2023-05-10T07:21:36;13.30;99.90
50570;DHT22;36525;49.398;7.614;2023-05-10T07:24:04;13.10;99.90
50570;DHT22;36525;49.398;7.614;2023-05-10T07:26:31;13.10;99.90
50570;DHT22;36525;49.398;7.614;2023-05-10T07:28:58;13.20;99.90
50570;DHT22;36525;49.398;7.614;2023-05-10T07:31:26;13.40;99.90
50570;DHT22;36525;49.398;7.614;2023-05-10T07:33:55;13.50;99.90
50570;DHT22;36525;49.398;7.614;2023-05-10T07:36:22;13.40;99.90
50570;DHT22;36525;49.398;7.614;2023-05-10T07:38:50;13.60;99.90
50570;DHT22;36525;49.398;7.614;2023-05-10T07:41:17;13.60;99.90
50570;DHT22;36525;49.398;7.614;2023-05-10T07:43:47;13.90;99.90
50570;DHT22;36525;49.398;7.614;2023-05-10T07:46:14;13.90;99.90
50570;DHT22;36525;49.398;7.614;2023-05-10T07:48:41;14.10;99.90
50570;DHT22;36525;49.398;7.614;2023-05-10T07:51:08;13.80;99.90
50570;DHT22;36525;49.398;7.614;2023-05-10T07:53:36;13.50;99.90
50570;DHT22;36525;49.398;7.614;2023-05-10T07:58:54;13.30;99.90
50570;DHT22;36525;49.398;7.614;2023-05-10T08:01:31;13.40;99.90
50570;DHT22;36525;49.398;7.614;2023-05-10T08:04:01;13.30;99.90
50570;DHT22;36525;49.398;7.614;2023-05-10T08:06:29;13.30;99.90
50570;DHT22;36525;49.398;7.614;2023-05-10T08:08:57;13.30;99.90
50570;DHT22;36525;49.398;7.614;2023-05-10T08:11:24;13.10;99.90
50570;DHT22;36525;49.398;7.614;2023-05-10T08:13:52;13.10;99.90
50570;DHT22;36525;49.398;7.614;2023-05-10T08:16:20;13.20;99.90
50570;DHT22;36525;49.398;7.614;2023-05-10T08:18:48;13.20;99.90
50570;DHT22;36525;49.398;7.614;2023-05-10T08:21:16;13.40;99.90
50570;DHT22;36525;49.398;7.614;2023-05-10T08:23:43;13.50;99.90
50570;DHT22;36525;49.398;7.614;2023-05-10T08:26:10;13.30;99.90
50570;DHT22;36525;49.398;7.614;2023-05-10T08:28:38;13.10;99.90
50570;DHT22;36525;49.398;7.614;2023-05-10T08:31:08;12.90;99.90
50570;DHT22;36525;49.398;7.614;2023-05-10T08:33:36;12.90;99.90
50570;DHT22;36525;49.398;7.614;2023-05-10T08:36:04;12.70;99.90
50570;DHT22;36525;49.398;7.614;2023-05-10T08:38:30;12.60;99.90
50570;DHT22;36525;49.398;7.614;2023-05-10T08:40:58;12.70;99.90
50570;DHT22;36525;49.398;7.614;2023-05-10T08:43:29;12.60;99.90
50570;DHT22;36525;49.398;7.614;2023-05-10T08:46:00;12.80;99.90
50570;DHT22;36525;49.398;7.614;2023-05-10T08:48:29;12.80;99.90
50570;DHT22;36525;49.398;7.614;2023-05-10T08:50:58;12.90;99.90
50570;DHT22;36525;49.398;7.614;2023-05-10T08:53:29;13.00;99.90
50570;DHT22;36525;49.398;7.614;2023-05-10T08:55:58;12.90;99.90
50570;DHT22;36525;49.398;7.614;2023-05-10T08:58:25;13.00;99.90
50570;DHT22;36525;49.398;7.614;2023-05-10T09:00:53;13.00;99.90
50570;DHT22;36525;49.398;7.614;2023-05-10T09:03:20;13.10;99.90
50570;DHT22;36525;49.398;7.614;2023-05-10T09:08:16;13.90;99.90
50570;DHT22;36525;49.398;7.614;2023-05-10T09:10:44;14.50;99.90
50570;DHT22;36525;49.398;7.614;2023-05-10T09:13:14;15.10;99.90
50570;DHT22;36525;49.398;7.614;2023-05-10T09:15:43;15.50;99.90
50570;DHT22;36525;49.398;7.614;2023-05-10T09:18:12;15.50;99.90
50570;DHT22;36525;49.398;7.614;2023-05-10T09:20:40;14.80;99.90
50570;DHT22;36525;49.398;7.614;2023-05-10T09:23:08;14.70;99.90
50570;DHT22;36525;49.398;7.614;2023-05-10T09:25:35;14.60;99.90
50570;DHT22;36525;49.398;7.614;2023-05-10T09:30:35;14.10;99.90
50570;DHT22;36525;49.398;7.614;2023-05-10T09:33:02;14.00;99.90
50570;DHT22;36525;49.398;7.614;2023-05-10T09:35:31;13.80;99.90
50570;DHT22;36525;49.398;7.614;2023-05-10T09:38:03;13.70;99.90
50570;DHT22;36525;49.398;7.614;2023-05-10T09:40:31;13.80;99.90
50570;DHT22;36525;49.398;7.614;2023-05-10T09:43:00;13.70;99.90
50570;DHT22;36525;49.398;7.614;2023-05-10T09:45:31;14.50;99.90
50570;DHT22;36525;49.398;7.614;2023-05-10T09:48:02;15.70;99.90
50570;DHT22;36525;49.398;7.614;2023-05-10T09:50:30;16.80;99.90
50570;DHT22;36525;49.398;7.614;2023-05-10T09:52:58;16.80;99.90
50570;DHT22;36525;49.398;7.614;2023-05-10T09:58:06;17.10;99.90
50570;DHT22;36525;49.398;7.614;2023-05-10T10:00:38;17.30;99.90
50570;DHT22;36525;49.398;7.614;2023-05-10T10:03:11;16.60;99.90
50570;DHT22;36525;49.398;7.614;2023-05-10T10:05:43;17.00;99.90
50570;DHT22;36525;49.398;7.614;2023-05-10T10:08:11;16.80;99.90
50570;DHT22;36525;49.398;7.614;2023-05-10T10:13:12;17.70;99.90
50570;DHT22;36525;49.398;7.614;2023-05-10T10:15:39;17.80;99.90
50570;DHT22;36525;49.398;7.614;2023-05-10T10:18:07;17.70;99.90
50570;DHT22;36525;49.398;7.614;2023-05-10T10:20:39;17.80;99.90
50570;DHT22;36525;49.398;7.614;2023-05-10T10:23:08;17.80;99.90
50570;DHT22;36525;49.398;7.614;2023-05-10T10:25:35;17.80;99.90
50570;DHT22;36525;49.398;7.614;2023-05-10T10:30:55;16.60;99.90
50570;DHT22;36525;49.398;7.614;2023-05-10T10:33:33;15.50;99.90
50570;DHT22;36525;49.398;7.614;2023-05-10T10:41:34;14.00;99.90
50570;DHT22;36525;49.398;7.614;2023-05-10T10:50:07;13.60;99.90
50570;DHT22;36525;49.398;7.614;2023-05-10T10:52:42;13.70;99.90
50570;DHT22;36525;49.398;7.614;2023-05-10T10:55:20;13.80;99.90
50570;DHT22;36525;49.398;7.614;2023-05-10T10:57:53;14.40;99.90
50570;DHT22;36525;49.398;7.614;2023-05-10T11:00:28;14.80;99.90
50570;DHT22;36525;49.398;7.614;2023-05-10T11:03:05;15.10;99.90
50570;DHT22;36525;49.398;7.614;2023-05-10T11:05:40;15.00;99.90
50570;DHT22;36525;49.398;7.614;2023-05-10T11:08:26;14.90;99.90
50570;DHT22;36525;49.398;7.614;2023-05-10T11:13:37;14.70;99.90
50570;DHT22;36525;49.398;7.614;2023-05-10T11:16:22;15.20;99.90
50570;DHT22;36525;49.398;7.614;2023-05-10T11:21:25;15.30;99.90
50570;DHT22;36525;49.398;7.614;2023-05-10T11:23:54;15.30;99.90
50570;DHT22;36525;49.398;7.614;2023-05-10T11:26:30;15.50;99.90
50570;DHT22;36525;49.398;7.614;2023-05-10T11:28:58;15.70;99.90
50570;DHT22;36525;49.398;7.614;2023-05-10T11:31:29;15.70;99.90
50570;DHT22;36525;49.398;7.614;2023-05-10T11:33:58;16.30;99.90
50570;DHT22;36525;49.398;7.614;2023-05-10T11:36:32;16.20;99.90
50570;DHT22;36525;49.398;7.614;2023-05-10T11:39:00;16.20;99.90
50570;DHT22;36525;49.398;7.614;2023-05-10T11:41:29;16.40;99.90
50570;DHT22;36525;49.398;7.614;2023-05-10T11:43:57;16.30;99.90
50570;DHT22;36525;49.398;7.614;2023-05-10T11:46:26;16.50;99.90
50570;DHT22;36525;49.398;7.614;2023-05-10T11:48:57;16.40;99.90
50570;DHT22;36525;49.398;7.614;2023-05-10T11:51:28;16.10;99.90
50570;DHT22;36525;49.398;7.614;2023-05-10T11:53:56;16.30;99.90
50570;DHT22;36525;49.398;7.614;2023-05-10T11:56:24;16.30;99.90
50570;DHT22;36525;49.398;7.614;2023-05-10T11:58:54;16.20;99.90
50570;DHT22;36525;49.398;7.614;2023-05-10T12:01:27;16.50;99.90
50570;DHT22;36525;49.398;7.614;2023-05-10T12:03:55;17.20;99.90
50570;DHT22;36525;49.398;7.614;2023-05-10T12:06:29;16.50;99.90
50570;DHT22;36525;49.398;7.614;2023-05-10T12:09:01;16.40;99.90
50570;DHT22;36525;49.398;7.614;2023-05-10T12:11:35;16.10;99.90
50570;DHT22;36525;49.398;7.614;2023-05-10T12:14:04;15.90;99.90
50570;DHT22;36525;49.398;7.614;2023-05-10T12:16:32;16.10;99.90
50570;DHT22;36525;49.398;7.614;2023-05-10T12:21:28;16.50;99.90
50570;DHT22;36525;49.398;7.614;2023-05-10T12:24:02;16.20;99.90
50570;DHT22;36525;49.398;7.614;2023-05-10T12:26:30;16.20;99.90
50570;DHT22;36525;49.398;7.614;2023-05-10T12:29:18;16.30;99.90
50570;DHT22;36525;49.398;7.614;2023-05-10T12:31:53;16.70;99.90
50570;DHT22;36525;49.398;7.614;2023-05-10T12:34:31;16.10;99.90
50570;DHT22;36525;49.398;7.614;2023-05-10T12:36:59;16.40;99.90
50570;DHT22;36525;49.398;7.614;2023-05-10T12:39:41;16.50;99.90
50570;DHT22;36525;49.398;7.614;2023-05-10T12:42:09;16.20;99.90
50570;DHT22;36525;49.398;7.614;2023-05-10T12:44:37;16.20;99.90
50570;DHT22;36525;49.398;7.614;2023-05-10T12:47:04;16.50;99.90
50570;DHT22;36525;49.398;7.614;2023-05-10T12:49:31;16.60;99.90
50570;DHT22;36525;49.398;7.614;2023-05-10T12:52:01;16.40;99.90
50570;DHT22;36525;49.398;7.614;2023-05-10T12:54:28;16.10;99.90
50570;DHT22;36525;49.398;7.614;2023-05-10T12:56:55;16.40;99.90
50570;DHT22;36525;49.398;7.614;2023-05-10T12:59:22;17.10;99.90
50570;DHT22;36525;49.398;7.614;2023-05-10T13:01:49;17.60;99.90
50570;DHT22;36525;49.398;7.614;2023-05-10T13:04:17;17.10;99.90
50570;DHT22;36525;49.398;7.614;2023-05-10T13:06:44;16.40;99.90
50570;DHT22;36525;49.398;7.614;2023-05-10T13:09:11;16.00;99.90
50570;DHT22;36525;49.398;7.614;2023-05-10T13:11:38;16.70;99.90
50570;DHT22;36525;49.398;7.614;2023-05-10T13:14:05;17.30;99.90
50570;DHT22;36525;49.398;7.614;2023-05-10T13:16:32;18.50;99.90
50570;DHT22;36525;49.398;7.614;2023-05-10T13:18:59;18.00;99.90
50570;DHT22;36525;49.398;7.614;2023-05-10T13:21:26;17.20;99.90
50570;DHT22;36525;49.398;7.614;2023-05-10T13:23:54;16.70;99.90
50570;DHT22;36525;49.398;7.614;2023-05-10T13:26:22;17.60;99.90
50570;DHT22;36525;49.398;7.614;2023-05-10T13:28:49;17.80;99.90
50570;DHT22;36525;49.398;7.614;2023-05-10T13:31:18;18.10;99.90
50570;DHT22;36525;49.398;7.614;2023-05-10T13:33:46;17.90;99.90
50570;DHT22;36525;49.398;7.614;2023-05-10T13:36:13;17.80;99.90
50570;DHT22;36525;49.398;7.614;2023-05-10T13:38:39;18.60;99.90
50570;DHT22;36525;49.398;7.614;2023-05-10T13:41:07;18.80;99.90
50570;DHT22;36525;49.398;7.614;2023-05-10T13:43:34;19.20;99.90
50570;DHT22;36525;49.398;7.614;2023-05-10T13:46:01;20.00;99.90
50570;DHT22;36525;49.398;7.614;2023-05-10T13:48:29;18.90;98.80
50570;DHT22;36525;49.398;7.614;2023-05-10T13:50:56;19.30;99.90
50570;DHT22;36525;49.398;7.614;2023-05-10T13:53:24;19.00;99.90
50570;DHT22;36525;49.398;7.614;2023-05-10T13:55:53;19.60;99.10
50570;DHT22;36525;49.398;7.614;2023-05-10T13:58:23;19.70;99.50
50570;DHT22;36525;49.398;7.614;2023-05-10T14:00:50;19.80;97.60
50570;DHT22;36525;49.398;7.614;2023-05-10T14:03:17;19.80;98.90
50570;DHT22;36525;49.398;7.614;2023-05-10T14:05:44;19.60;99.30
50570;DHT22;36525;49.398;7.614;2023-05-10T14:08:12;19.90;98.20
50570;DHT22;36525;49.398;7.614;2023-05-10T14:10:39;19.90;96.70
50570;DHT22;36525;49.398;7.614;2023-05-10T14:13:07;19.20;97.60
50570;DHT22;36525;49.398;7.614;2023-05-10T14:15:34;19.30;98.90
50570;DHT22;36525;49.398;7.614;2023-05-10T14:18:01;19.50;97.90
50570;DHT22;36525;49.398;7.614;2023-05-10T14:20:29;18.50;96.90
50570;DHT22;36525;49.398;7.614;2023-05-10T14:22:56;18.50;97.30
50570;DHT22;36525;49.398;7.614;2023-05-10T14:25:24;19.30;98.00
50570;DHT22;36525;49.398;7.614;2023-05-10T14:27:51;20.20;98.00
50570;DHT22;36525;49.398;7.614;2023-05-10T14:30:21;20.50;95.60
50570;DHT22;36525;49.398;7.614;2023-05-10T14:32:48;20.40;95.90
50570;DHT22;36525;49.398;7.614;2023-05-10T14:35:15;20.20;95.60
50570;DHT22;36525;49.398;7.614;2023-05-10T14:37:45;19.90;96.50
50570;DHT22;36525;49.398;7.614;2023-05-10T14:40:15;20.00;95.90
50570;DHT22;36525;49.398;7.614;2023-05-10T14:42:44;19.50;95.40
50570;DHT22;36525;49.398;7.614;2023-05-10T14:45:11;19.20;96.00
50570;DHT22;36525;49.398;7.614;2023-05-10T14:47:39;18.90;96.50
50570;DHT22;36525;49.398;7.614;2023-05-10T14:50:07;18.70;96.60
50570;DHT22;36525;49.398;7.614;2023-05-10T14:52:34;18.50;97.90
50570;DHT22;36525;49.398;7.614;2023-05-10T14:55:02;19.10;98.20
50570;DHT22;36525;49.398;7.614;2023-05-10T14:57:29;20.20;98.30
50570;DHT22;36525;49.398;7.614;2023-05-10T14:59:57;21.20;96.80
50570;DHT22;36525;49.398;7.614;2023-05-10T15:02:26;21.60;96.10
50570;DHT22;36525;49.398;7.614;2023-05-10T15:04:54;21.30;96.50
50570;DHT22;36525;49.398;7.614;2023-05-10T15:07:22;21.10;94.90
50570;DHT22;36525;49.398;7.614;2023-05-10T15:09:50;19.70;95.50
50570;DHT22;36525;49.398;7.614;2023-05-10T15:12:19;20.10;96.40
50570;DHT22;36525;49.398;7.614;2023-05-10T15:14:47;19.90;97.50
50570;DHT22;36525;49.398;7.614;2023-05-10T15:17:15;19.20;97.60
50570;DHT22;36525;49.398;7.614;2023-05-10T15:19:43;18.60;97.00
50570;DHT22;36525;49.398;7.614;2023-05-10T15:22:10;18.40;98.20
50570;DHT22;36525;49.398;7.614;2023-05-10T15:24:37;18.20;98.70
50570;DHT22;36525;49.398;7.614;2023-05-10T15:27:04;18.10;99.60
50570;DHT22;36525;49.398;7.614;2023-05-10T15:29:31;17.60;99.20
50570;DHT22;36525;49.398;7.614;2023-05-10T15:31:59;17.50;99.90
50570;DHT22;36525;49.398;7.614;2023-05-10T15:34:28;17.80;99.90
50570;DHT22;36525;49.398;7.614;2023-05-10T15:36:59;18.00;99.90
50570;DHT22;36525;49.398;7.614;2023-05-10T15:39:26;18.50;99.30
50570;DHT22;36525;49.398;7.614;2023-05-10T15:41:53;19.10;98.00
50570;DHT22;36525;49.398;7.614;2023-05-10T15:44:20;19.20;99.10
50570;DHT22;36525;49.398;7.614;2023-05-10T15:47:05;17.90;98.50
50570;DHT22;36525;49.398;7.614;2023-05-10T15:49:32;17.70;99.50
50570;DHT22;36525;49.398;7.614;2023-05-10T15:51:59;18.10;99.50
50570;DHT22;36525;49.398;7.614;2023-05-10T15:54:28;18.90;98.80
50570;DHT22;36525;49.398;7.614;2023-05-10T15:56:55;19.90;97.70
50570;DHT22;36525;49.398;7.614;2023-05-10T15:59:22;19.90;98.50
50570;DHT22;36525;49.398;7.614;2023-05-10T16:01:49;18.90;97.30
50570;DHT22;36525;49.398;7.614;2023-05-10T16:04:17;18.20;99.20
50570;DHT22;36525;49.398;7.614;2023-05-10T16:06:44;18.20;99.90
50570;DHT22;36525;49.398;7.614;2023-05-10T16:09:11;18.60;99.90
50570;DHT22;36525;49.398;7.614;2023-05-10T16:11:39;17.60;99.60
50570;DHT22;36525;49.398;7.614;2023-05-10T16:14:09;17.10;99.90
50570;DHT22;36525;49.398;7.614;2023-05-10T16:16:36;16.80;99.90
50570;DHT22;36525;49.398;7.614;2023-05-10T16:19:03;16.90;99.90
50570;DHT22;36525;49.398;7.614;2023-05-10T16:21:31;17.60;99.90
50570;DHT22;36525;49.398;7.614;2023-05-10T16:23:59;17.90;99.90
50570;DHT22;36525;49.398;7.614;2023-05-10T16:26:26;18.50;99.90
50570;DHT22;36525;49.398;7.614;2023-05-10T16:28:56;17.80;99.90
50570;DHT22;36525;49.398;7.614;2023-05-10T16:31:23;17.60;99.90
50570;DHT22;36525;49.398;7.614;2023-05-10T16:33:50;16.90;99.90
50570;DHT22;36525;49.398;7.614;2023-05-10T16:36:20;16.20;99.90
50570;DHT22;36525;49.398;7.614;2023-05-10T16:38:49;15.90;99.90
50570;DHT22;36525;49.398;7.614;2023-05-10T16:41:17;15.50;99.90